sensor_id;sensor_type;location;lat;lon;timestamp;pressure;altitude;pressure_sealevel;temperature;humidity
10476;BME280;26166;48.264;11.436;2023-02-21T00:01:39;96657.97;;;11.24;49.25
10476;BME280;26166;48.264;11.436;2023-02-21T00:04:58;96656.84;;;11.26;49.40
10476;BME280;26166;48.264;11.436;2023-02-21T00:08:17;96649.94;;;11.25;49.34
10476;BME280;26166;48.264;11.436;2023-02-21T00:11:39;96653.53;;;11.24;49.35
10476;BME280;26166;48.264;11.436;2023-02-21T00:14:58;96654.53;;;11.23;49.40
10476;BME280;26166;48.264;11.436;2023-02-21T00:18:17;96649.44;;;11.22;49.63
10476;BME280;26166;48.264;11.436;2023-02-21T00:21:36;96650.91;;;11.24;49.43
10476;BME280;26166;48.264;11.436;2023-02-21T00:24:55;96642.34;;;11.22;49.40
10476;BME280;26166;48.264;11.436;2023-02-21T00:28:14;96645.00;;;11.22;49.38
10476;BME280;26166;48.264;11.436;2023-02-21T00:31:33;96642.53;;;11.21;49.35
10476;BME280;26166;48.264;11.436;2023-02-21T00:34:52;96638.91;;;11.22;49.22
10476;BME280;26166;48.264;11.436;2023-02-21T00:38:11;96641.38;;;11.23;49.15
10476;BME280;26166;48.264;11.436;2023-02-21T00:41:30;96640.72;;;11.21;48.75
10476;BME280;26166;48.264;11.436;2023-02-21T00:44:49;96646.81;;;11.22;48.68
10476;BME280;26166;48.264;11.436;2023-02-21T00:48:08;96648.63;;;11.21;48.90
10476;BME280;26166;48.264;11.436;2023-02-21T00:51:27;96644.34;;;11.20;48.65
10476;BME280;26166;48.264;11.436;2023-02-21T00:54:46;96643.34;;;11.21;48.53
10476;BME280;26166;48.264;11.436;2023-02-21T00:58:05;96632.16;;;11.19;48.72
10476;BME280;26166;48.264;11.436;2023-02-21T01:01:24;96634.66;;;11.21;48.68
10476;BME280;26166;48.264;11.436;2023-02-21T01:04:43;96629.38;;;11.21;48.62
10476;BME280;26166;48.264;11.436;2023-02-21T01:08:02;96630.22;;;11.21;48.20
10476;BME280;26166;48.264;11.436;2023-02-21T01:11:21;96625.25;;;11.18;48.66
10476;BME280;26166;48.264;11.436;2023-02-21T01:14:40;96626.25;;;11.17;48.92
10476;BME280;26166;48.264;11.436;2023-02-21T01:17:59;96629.53;;;11.19;48.45
10476;BME280;26166;48.264;11.436;2023-02-21T01:21:18;96620.81;;;11.19;48.97
10476;BME280;26166;48.264;11.436;2023-02-21T01:24:37;96615.06;;;11.15;48.49
10476;BME280;26166;48.264;11.436;2023-02-21T01:27:56;96613.09;;;11.17;48.83
10476;BME280;26166;48.264;11.436;2023-02-21T01:31:16;96607.84;;;11.17;48.95
10476;BME280;26166;48.264;11.436;2023-02-21T01:34:35;96609.78;;;11.15;48.75
10476;BME280;26166;48.264;11.436;2023-02-21T01:37:54;96611.47;;;11.16;49.13
10476;BME280;26166;48.264;11.436;2023-02-21T01:41:13;96613.41;;;11.14;48.98
10476;BME280;26166;48.264;11.436;2023-02-21T01:47:54;96598.47;;;11.15;49.23
10476;BME280;26166;48.264;11.436;2023-02-21T01:51:14;96604.53;;;11.15;48.73
10476;BME280;26166;48.264;11.436;2023-02-21T01:54:35;96598.63;;;11.13;49.32
10476;BME280;26166;48.264;11.436;2023-02-21T01:57:55;96593.56;;;11.11;48.88
10476;BME280;26166;48.264;11.436;2023-02-21T02:01:17;96590.41;;;11.08;48.96
10476;BME280;26166;48.264;11.436;2023-02-21T02:04:38;96594.69;;;11.09;48.91
10476;BME280;26166;48.264;11.436;2023-02-21T02:07:59;96585.28;;;11.06;49.04
10476;BME280;26166;48.264;11.436;2023-02-21T02:18:09;96586.47;;;11.04;48.60
10476;BME280;26166;48.264;11.436;2023-02-21T02:24:27;96582.50;;;11.00;48.93
10476;BME280;26166;48.264;11.436;2023-02-21T02:30:58;96576.25;;;11.01;49.42
10476;BME280;26166;48.264;11.436;2023-02-21T02:37:34;96570.50;;;10.97;49.50
10476;BME280;26166;48.264;11.436;2023-02-21T02:47:01;96569.69;;;10.97;48.87
10476;BME280;26166;48.264;11.436;2023-02-21T02:50:04;96566.41;;;10.95;49.28
10476;BME280;26166;48.264;11.436;2023-02-21T02:53:05;96572.47;;;10.95;49.31
10476;BME280;26166;48.264;11.436;2023-02-21T02:56:07;96571.78;;;10.93;49.03
10476;BME280;26166;48.264;11.436;2023-02-21T02:59:11;96573.78;;;10.91;49.11
10476;BME280;26166;48.264;11.436;2023-02-21T03:05:47;96569.50;;;10.90;49.42
10476;BME280;26166;48.264;11.436;2023-02-21T03:08:55;96561.47;;;10.92;49.09
10476;BME280;26166;48.264;11.436;2023-02-21T03:15:31;96570.16;;;10.92;49.41
10476;BME280;26166;48.264;11.436;2023-02-21T03:18:38;96571.31;;;10.90;49.33
10476;BME280;26166;48.264;11.436;2023-02-21T03:21:50;96571.31;;;10.90;49.05
10476;BME280;26166;48.264;11.436;2023-02-21T03:24:52;96573.94;;;10.90;49.51
10476;BME280;26166;48.264;11.436;2023-02-21T03:27:53;96571.47;;;10.88;49.57
10476;BME280;26166;48.264;11.436;2023-02-21T03:30:54;96581.16;;;10.88;49.36
10476;BME280;26166;48.264;11.436;2023-02-21T03:33:55;96584.47;;;10.90;49.26
10476;BME280;26166;48.264;11.436;2023-02-21T03:36:55;96562.75;;;10.88;49.08
10476;BME280;26166;48.264;11.436;2023-02-21T03:39:55;96572.28;;;10.89;49.38
10476;BME280;26166;48.264;11.436;2023-02-21T03:42:56;96568.00;;;10.88;49.44
10476;BME280;26166;48.264;11.436;2023-02-21T03:45:57;96572.44;;;10.87;49.49
10476;BME280;26166;48.264;11.436;2023-02-21T03:48:57;96571.47;;;10.88;49.11
10476;BME280;26166;48.264;11.436;2023-02-21T03:51:57;96576.88;;;10.86;49.18
10476;BME280;26166;48.264;11.436;2023-02-21T03:54:57;96576.88;;;10.86;49.35
10476;BME280;26166;48.264;11.436;2023-02-21T03:57:58;96571.47;;;10.88;48.92
10476;BME280;26166;48.264;11.436;2023-02-21T04:00:58;96581.16;;;10.88;49.07
10476;BME280;26166;48.264;11.436;2023-02-21T04:03:58;96578.69;;;10.86;49.47
10476;BME280;26166;48.264;11.436;2023-02-21T04:06:58;96569.50;;;10.90;49.15
10476;BME280;26166;48.264;11.436;2023-02-21T04:09:59;96565.06;;;10.91;49.25
10476;BME280;26166;48.264;11.436;2023-02-21T04:12:59;96569.66;;;10.89;49.00
10476;BME280;26166;48.264;11.436;2023-02-21T04:15:59;96557.19;;;10.91;49.37
10476;BME280;26166;48.264;11.436;2023-02-21T04:18:59;96560.47;;;10.93;49.02
10476;BME280;26166;48.264;11.436;2023-02-21T04:21:59;96557.03;;;10.92;49.08
10476;BME280;26166;48.264;11.436;2023-02-21T04:25:00;96550.28;;;10.90;48.91
10476;BME280;26166;48.264;11.436;2023-02-21T04:28:00;96559.47;;;10.77;49.35
10476;BME280;26166;48.264;11.436;2023-02-21T04:31:00;96563.69;;;10.70;49.44
10476;BME280;26166;48.264;11.436;2023-02-21T04:34:00;96552.84;;;10.65;49.60
10476;BME280;26166;48.264;11.436;2023-02-21T04:37:00;96554.19;;;10.69;49.35
10476;BME280;26166;48.264;11.436;2023-02-21T04:40:01;96557.44;;;10.71;49.73
10476;BME280;26166;48.264;11.436;2023-02-21T04:43:01;96561.75;;;10.72;49.26
10476;BME280;26166;48.264;11.436;2023-02-21T04:46:01;96554.00;;;10.71;49.51
10476;BME280;26166;48.264;11.436;2023-02-21T04:49:01;96554.69;;;10.73;49.34
10476;BME280;26166;48.264;11.436;2023-02-21T04:52:02;96556.50;;;10.72;49.47
10476;BME280;26166;48.264;11.436;2023-02-21T04:55:02;96557.31;;;10.73;49.47
10476;BME280;26166;48.264;11.436;2023-02-21T04:58:02;96550.25;;;10.73;49.35
10476;BME280;26166;48.264;11.436;2023-02-21T05:01:03;96553.03;;;10.72;49.46
10476;BME280;26166;48.264;11.436;2023-02-21T05:04:03;96553.19;;;10.70;49.32
10476;BME280;26166;48.264;11.436;2023-02-21T05:07:04;96554.81;;;10.71;49.32
10476;BME280;26166;48.264;11.436;2023-02-21T05:10:04;96551.25;;;10.72;49.46
10476;BME280;26166;48.264;11.436;2023-02-21T05:13:04;96543.00;;;10.75;48.86
10476;BME280;26166;48.264;11.436;2023-02-21T05:16:05;96544.50;;;10.78;48.96
10476;BME280;26166;48.264;11.436;2023-02-21T05:19:05;96538.44;;;10.77;49.11
10476;BME280;26166;48.264;11.436;2023-02-21T05:22:05;96531.03;;;10.73;49.04
10476;BME280;26166;48.264;11.436;2023-02-21T05:25:13;96524.63;;;10.75;49.21
10476;BME280;26166;48.264;11.436;2023-02-21T05:28:13;96527.41;;;10.74;49.32
10476;BME280;26166;48.264;11.436;2023-02-21T05:31:14;96526.91;;;10.70;49.27
10476;BME280;26166;48.264;11.436;2023-02-21T05:34:14;96531.69;;;10.75;48.94
10476;BME280;26166;48.264;11.436;2023-02-21T05:37:15;96528.91;;;10.68;49.45
10476;BME280;26166;48.264;11.436;2023-02-21T05:40:16;96521.00;;;10.68;49.45
10476;BME280;26166;48.264;11.436;2023-02-21T05:43:16;96528.56;;;10.71;48.98
10476;BME280;26166;48.264;11.436;2023-02-21T05:46:17;96522.81;;;10.68;48.95
10476;BME280;26166;48.264;11.436;2023-02-21T05:49:18;96523.63;;;10.68;49.30
10476;BME280;26166;48.264;11.436;2023-02-21T05:52:21;96525.28;;;10.69;49.41
10476;BME280;26166;48.264;11.436;2023-02-21T05:55:22;96522.34;;;10.72;48.76
10476;BME280;26166;48.264;11.436;2023-02-21T05:58:22;96522.16;;;10.74;48.87
10476;BME280;26166;48.264;11.436;2023-02-21T06:01:22;96523.16;;;10.73;48.89
10476;BME280;26166;48.264;11.436;2023-02-21T06:04:22;96529.50;;;10.62;49.31
10476;BME280;26166;48.264;11.436;2023-02-21T06:07:23;96531.84;;;10.65;48.78
10476;BME280;26166;48.264;11.436;2023-02-21T06:10:23;96539.38;;;10.60;49.09
10476;BME280;26166;48.264;11.436;2023-02-21T06:13:23;96536.75;;;10.60;48.95
10476;BME280;26166;48.264;11.436;2023-02-21T06:16:23;96542.50;;;10.64;48.81
10476;BME280;26166;48.264;11.436;2023-02-21T06:19:24;96550.53;;;10.62;48.98
10476;BME280;26166;48.264;11.436;2023-02-21T06:22:24;96548.59;;;10.64;48.74
10476;BME280;26166;48.264;11.436;2023-02-21T06:25:24;96557.59;;;10.61;49.14
10476;BME280;26166;48.264;11.436;2023-02-21T06:28:28;96557.44;;;10.63;49.13
10476;BME280;26166;48.264;11.436;2023-02-21T06:31:28;96555.66;;;10.64;49.05
10476;BME280;26166;48.264;11.436;2023-02-21T06:34:29;96558.28;;;10.64;49.26
10476;BME280;26166;48.264;11.436;2023-02-21T06:37:29;96562.38;;;10.66;48.76
10476;BME280;26166;48.264;11.436;2023-02-21T06:40:29;96569.91;;;10.61;49.11
10476;BME280;26166;48.264;11.436;2023-02-21T06:43:29;96565.66;;;10.60;48.90
10476;BME280;26166;48.264;11.436;2023-02-21T06:46:30;96569.59;;;10.64;48.69
10476;BME280;26166;48.264;11.436;2023-02-21T06:49:30;96572.19;;;10.56;48.95
10476;BME280;26166;48.264;11.436;2023-02-21T06:52:30;96572.94;;;10.40;48.82
10476;BME280;26166;48.264;11.436;2023-02-21T06:55:31;96572.13;;;10.40;49.36
10476;BME280;26166;48.264;11.436;2023-02-21T06:58:31;96576.72;;;10.38;49.46
10476;BME280;26166;48.264;11.436;2023-02-21T07:01:31;96589.53;;;10.41;49.39
10476;BME280;26166;48.264;11.436;2023-02-21T07:04:32;96589.88;;;10.46;49.08
10476;BME280;26166;48.264;11.436;2023-02-21T07:07:32;96588.91;;;10.47;49.42
10476;BME280;26166;48.264;11.436;2023-02-21T07:10:32;96586.44;;;10.45;49.10
10476;BME280;26166;48.264;11.436;2023-02-21T07:13:32;96597.78;;;10.46;49.33
10476;BME280;26166;48.264;11.436;2023-02-21T07:16:32;96597.78;;;10.46;49.15
10476;BME280;26166;48.264;11.436;2023-02-21T07:19:33;96600.53;;;10.44;49.39
10476;BME280;26166;48.264;11.436;2023-02-21T07:22:33;96597.09;;;10.44;49.23
10476;BME280;26166;48.264;11.436;2023-02-21T07:25:33;96594.00;;;10.48;49.23
10476;BME280;26166;48.264;11.436;2023-02-21T07:28:33;96588.59;;;10.50;49.77
10476;BME280;26166;48.264;11.436;2023-02-21T07:31:33;96587.59;;;10.51;49.08
10476;BME280;26166;48.264;11.436;2023-02-21T07:34:34;96587.44;;;10.52;48.92
10476;BME280;26166;48.264;11.436;2023-02-21T07:37:34;96587.31;;;10.54;49.16
10476;BME280;26166;48.264;11.436;2023-02-21T07:40:34;96594.19;;;10.55;48.81
10476;BME280;26166;48.264;11.436;2023-02-21T07:43:34;96592.91;;;10.59;48.36
10476;BME280;26166;48.264;11.436;2023-02-21T07:46:34;96593.50;;;10.53;48.35
10476;BME280;26166;48.264;11.436;2023-02-21T07:49:38;96591.56;;;10.55;48.34
10476;BME280;26166;48.264;11.436;2023-02-21T07:52:38;96595.19;;;10.54;48.12
10476;BME280;26166;48.264;11.436;2023-02-21T07:55:38;96593.22;;;10.56;48.20
10476;BME280;26166;48.264;11.436;2023-02-21T07:58:39;96588.47;;;10.59;48.43
10476;BME280;26166;48.264;11.436;2023-02-21T08:01:39;96597.16;;;10.60;48.03
10476;BME280;26166;48.264;11.436;2023-02-21T08:04:39;96596.34;;;10.59;48.19
10476;BME280;26166;48.264;11.436;2023-02-21T08:07:40;96597.16;;;10.60;48.14
10476;BME280;26166;48.264;11.436;2023-02-21T08:10:40;96597.81;;;10.62;48.34
10476;BME280;26166;48.264;11.436;2023-02-21T08:13:41;96601.13;;;10.64;47.98
10476;BME280;26166;48.264;11.436;2023-02-21T08:16:41;96603.44;;;10.67;48.34
10476;BME280;26166;48.264;11.436;2023-02-21T08:19:42;96599.00;;;10.68;47.96
10476;BME280;26166;48.264;11.436;2023-02-21T08:22:42;96603.28;;;10.69;48.46
10476;BME280;26166;48.264;11.436;2023-02-21T08:25:43;96603.28;;;10.69;47.92
10476;BME280;26166;48.264;11.436;2023-02-21T08:28:43;96605.56;;;10.64;47.98
10476;BME280;26166;48.264;11.436;2023-02-21T08:31:44;96614.94;;;10.74;48.43
10476;BME280;26166;48.264;11.436;2023-02-21T08:34:44;96608.69;;;10.75;48.34
10476;BME280;26166;48.264;11.436;2023-02-21T08:37:48;96617.91;;;10.79;48.42
10476;BME280;26166;48.264;11.436;2023-02-21T08:40:49;96616.97;;;10.80;48.22
10476;BME280;26166;48.264;11.436;2023-02-21T08:43:50;96615.97;;;10.81;47.87
10476;BME280;26166;48.264;11.436;2023-02-21T08:46:50;96620.22;;;10.82;47.90
10476;BME280;26166;48.264;11.436;2023-02-21T08:49:51;96613.16;;;10.83;48.12
10476;BME280;26166;48.264;11.436;2023-02-21T08:52:51;96607.75;;;10.84;48.36
10476;BME280;26166;48.264;11.436;2023-02-21T08:55:51;96599.88;;;10.84;48.40
10476;BME280;26166;48.264;11.436;2023-02-21T08:58:52;96602.34;;;10.86;48.38
10476;BME280;26166;48.264;11.436;2023-02-21T09:01:55;96606.44;;;10.89;48.68
10476;BME280;26166;48.264;11.436;2023-02-21T09:04:55;96607.28;;;10.89;48.71
10476;BME280;26166;48.264;11.436;2023-02-21T09:07:56;96594.16;;;10.89;48.67
10476;BME280;26166;48.264;11.436;2023-02-21T09:11:00;96601.88;;;10.91;48.50
10476;BME280;26166;48.264;11.436;2023-02-21T09:14:00;96596.94;;;10.96;48.45
10476;BME280;26166;48.264;11.436;2023-02-21T09:17:05;96603.38;;;11.01;48.65
10476;BME280;26166;48.264;11.436;2023-02-21T09:20:06;96600.25;;;11.06;48.62
10476;BME280;26166;48.264;11.436;2023-02-21T09:23:07;96608.47;;;11.11;48.43
10476;BME280;26166;48.264;11.436;2023-02-21T09:26:07;96607.16;;;11.15;48.69
10476;BME280;26166;48.264;11.436;2023-02-21T09:29:07;96613.09;;;11.17;48.72
10476;BME280;26166;48.264;11.436;2023-02-21T09:32:07;96611.94;;;11.20;48.51
10476;BME280;26166;48.264;11.436;2023-02-21T09:35:08;96602.28;;;11.20;48.39
10476;BME280;26166;48.264;11.436;2023-02-21T09:38:09;96599.28;;;11.23;48.87
10476;BME280;26166;48.264;11.436;2023-02-21T09:41:12;96602.44;;;11.27;48.76
10476;BME280;26166;48.264;11.436;2023-02-21T09:44:14;96598.00;;;11.27;48.47
10476;BME280;26166;48.264;11.436;2023-02-21T09:47:18;96598.00;;;11.27;48.56
10476;BME280;26166;48.264;11.436;2023-02-21T09:50:23;96588.47;;;11.26;48.93
10476;BME280;26166;48.264;11.436;2023-02-21T09:53:31;96593.41;;;11.29;49.00
10476;BME280;26166;48.264;11.436;2023-02-21T09:56:33;96583.84;;;11.28;48.67
10476;BME280;26166;48.264;11.436;2023-02-21T09:59:34;96586.47;;;11.28;48.84
10476;BME280;26166;48.264;11.436;2023-02-21T10:21:24;96597.34;;;11.33;49.12
10476;BME280;26166;48.264;11.436;2023-02-21T10:24:27;96595.38;;;11.35;48.76
10476;BME280;26166;48.264;11.436;2023-02-21T10:27:29;96593.75;;;11.34;48.89
10476;BME280;26166;48.264;11.436;2023-02-21T10:30:35;96599.63;;;11.36;49.11
10476;BME280;26166;48.264;11.436;2023-02-21T10:33:36;96601.44;;;11.36;49.19
10476;BME280;26166;48.264;11.436;2023-02-21T10:36:37;96595.06;;;11.39;49.20
10476;BME280;26166;48.264;11.436;2023-02-21T10:39:43;96588.13;;;11.37;48.82
10476;BME280;26166;48.264;11.436;2023-02-21T10:42:51;96591.25;;;11.41;48.66
10476;BME280;26166;48.264;11.436;2023-02-21T10:46:54;96585.19;;;11.41;49.03
10476;BME280;26166;48.264;11.436;2023-02-21T10:49:24;96594.88;;;11.40;48.79
10476;BME280;26166;48.264;11.436;2023-02-21T10:52:28;96595.06;;;11.39;48.82
10476;BME280;26166;48.264;11.436;2023-02-21T10:55:29;96589.63;;;11.40;49.02
10476;BME280;26166;48.264;11.436;2023-02-21T10:58:29;96585.84;;;11.43;48.57
10476;BME280;26166;48.264;11.436;2023-02-21T11:01:32;96582.06;;;11.45;48.81
10476;BME280;26166;48.264;11.436;2023-02-21T11:04:33;96581.91;;;11.47;48.57
10476;BME280;26166;48.264;11.436;2023-02-21T11:07:34;96571.53;;;11.45;48.57
10476;BME280;26166;48.264;11.436;2023-02-21T11:10:36;96563.81;;;11.44;48.75
10476;BME280;26166;48.264;11.436;2023-02-21T11:13:36;96562.50;;;11.48;48.54
10476;BME280;26166;48.264;11.436;2023-02-21T11:16:36;96560.19;;;11.45;48.92
10476;BME280;26166;48.264;11.436;2023-02-21T11:22:47;96548.03;;;11.44;49.07
10476;BME280;26166;48.264;11.436;2023-02-21T11:25:48;96545.22;;;11.45;48.92
10476;BME280;26166;48.264;11.436;2023-02-21T11:28:49;96543.41;;;11.46;48.79
10476;BME280;26166;48.264;11.436;2023-02-21T11:31:50;96530.94;;;11.48;48.70
10476;BME280;26166;48.264;11.436;2023-02-21T11:34:59;96534.22;;;11.50;48.93
10476;BME280;26166;48.264;11.436;2023-02-21T11:38:03;96525.69;;;11.48;48.44
10476;BME280;26166;48.264;11.436;2023-02-21T11:47:32;96516.09;;;11.71;48.21
10476;BME280;26166;48.264;11.436;2023-02-21T11:50:39;96521.38;;;11.88;48.01
10476;BME280;26166;48.264;11.436;2023-02-21T11:53:45;96513.38;;;12.12;47.40
10476;BME280;26166;48.264;11.436;2023-02-21T11:57:01;96504.09;;;12.32;46.56
10476;BME280;26166;48.264;11.436;2023-02-21T12:15:56;96472.31;;;12.65;45.85
10476;BME280;26166;48.264;11.436;2023-02-21T12:22:57;96467.69;;;12.67;46.10
10476;BME280;26166;48.264;11.436;2023-02-21T12:29:11;96460.63;;;12.68;45.86
10476;BME280;26166;48.264;11.436;2023-02-21T12:38:46;96452.88;;;12.66;46.04
10476;BME280;26166;48.264;11.436;2023-02-21T12:55:04;96415.22;;;12.57;46.01
10476;BME280;26166;48.264;11.436;2023-02-21T13:01:28;96407.53;;;12.48;46.63
10476;BME280;26166;48.264;11.436;2023-02-21T13:04:37;96395.88;;;12.42;46.73
10476;BME280;26166;48.264;11.436;2023-02-21T13:10:50;96395.94;;;12.34;46.90
10476;BME280;26166;48.264;11.436;2023-02-21T13:13:51;96389.03;;;12.33;46.89
10476;BME280;26166;48.264;11.436;2023-02-21T13:16:52;96390.38;;;12.29;47.24
10476;BME280;26166;48.264;11.436;2023-02-21T13:19:55;96389.56;;;12.28;47.19
10476;BME280;26166;48.264;11.436;2023-02-21T13:26:37;96378.38;;;12.26;47.25
10476;BME280;26166;48.264;11.436;2023-02-21T13:29:40;96370.47;;;12.26;47.55
10476;BME280;26166;48.264;11.436;2023-02-21T13:32:48;96366.19;;;12.25;47.24
10476;BME280;26166;48.264;11.436;2023-02-21T13:35:50;96355.66;;;12.25;47.88
10476;BME280;26166;48.264;11.436;2023-02-21T13:42:09;96355.88;;;12.16;47.86
10476;BME280;26166;48.264;11.436;2023-02-21T13:45:14;96348.50;;;12.11;48.01
10476;BME280;26166;48.264;11.436;2023-02-21T13:48:17;96343.25;;;12.11;48.09
10476;BME280;26166;48.264;11.436;2023-02-21T13:54:37;96338.97;;;12.10;48.04
10476;BME280;26166;48.264;11.436;2023-02-21T14:01:12;96330.78;;;12.05;48.10
10476;BME280;26166;48.264;11.436;2023-02-21T14:07:42;96316.66;;;11.98;48.51
10476;BME280;26166;48.264;11.436;2023-02-21T14:10:44;96315.19;;;11.95;48.57
10476;BME280;26166;48.264;11.436;2023-02-21T14:13:47;96307.94;;;11.97;48.84
10476;BME280;26166;48.264;11.436;2023-02-21T14:16:49;96311.72;;;11.95;48.70
10476;BME280;26166;48.264;11.436;2023-02-21T14:19:54;96305.84;;;11.93;48.75
10476;BME280;26166;48.264;11.436;2023-02-21T14:22:58;96300.75;;;11.91;48.74
10476;BME280;26166;48.264;11.436;2023-02-21T14:25:59;96296.31;;;11.92;48.79
10476;BME280;26166;48.264;11.436;2023-02-21T14:29:09;96293.81;;;11.90;48.90
10476;BME280;26166;48.264;11.436;2023-02-21T14:38:31;96285.47;;;11.86;48.90
10476;BME280;26166;48.264;11.436;2023-02-21T14:44:36;96287.22;;;11.94;48.98
10476;BME280;26166;48.264;11.436;2023-02-21T15:03:45;96257.78;;;11.91;49.32
10476;BME280;26166;48.264;11.436;2023-02-21T15:06:59;96253.72;;;11.88;49.18
10476;BME280;26166;48.264;11.436;2023-02-21T15:10:15;96253.91;;;11.86;49.36
10476;BME280;26166;48.264;11.436;2023-02-21T15:13:23;96252.25;;;11.85;49.53
10476;BME280;26166;48.264;11.436;2023-02-21T15:16:24;96244.72;;;11.82;49.42
10476;BME280;26166;48.264;11.436;2023-02-21T15:19:26;96248.28;;;11.81;49.76
10476;BME280;26166;48.264;11.436;2023-02-21T15:22:27;96236.13;;;11.80;49.27
10476;BME280;26166;48.264;11.436;2023-02-21T15:25:28;96243.03;;;11.81;49.82
10476;BME280;26166;48.264;11.436;2023-02-21T15:28:28;96239.56;;;11.81;49.52
10476;BME280;26166;48.264;11.436;2023-02-21T15:31:38;96238.75;;;11.80;49.49
10476;BME280;26166;48.264;11.436;2023-02-21T15:34:40;96227.59;;;11.78;49.78
10476;BME280;26166;48.264;11.436;2023-02-21T15:37:43;96223.97;;;11.79;49.74
10476;BME280;26166;48.264;11.436;2023-02-21T15:40:47;96229.41;;;11.78;49.74
10476;BME280;26166;48.264;11.436;2023-02-21T15:43:52;96225.94;;;11.77;49.81
10476;BME280;26166;48.264;11.436;2023-02-21T15:47:01;96215.78;;;11.74;49.84
10476;BME280;26166;48.264;11.436;2023-02-21T15:53:14;96213.31;;;11.73;50.16
10476;BME280;26166;48.264;11.436;2023-02-21T15:56:16;96217.94;;;11.71;50.11
10476;BME280;26166;48.264;11.436;2023-02-21T15:59:19;96214.84;;;11.67;49.94
10476;BME280;26166;48.264;11.436;2023-02-21T16:02:20;96208.56;;;11.68;50.40
10476;BME280;26166;48.264;11.436;2023-02-21T16:05:26;96209.56;;;11.67;50.28
10476;BME280;26166;48.264;11.436;2023-02-21T16:08:26;96211.56;;;11.65;50.41
10476;BME280;26166;48.264;11.436;2023-02-21T16:11:41;96203.00;;;11.63;50.41
10476;BME280;26166;48.264;11.436;2023-02-21T16:17:43;96208.66;;;11.60;50.22
10476;BME280;26166;48.264;11.436;2023-02-21T16:20:44;96199.09;;;11.59;50.60
10476;BME280;26166;48.264;11.436;2023-02-21T16:23:44;96205.34;;;11.58;50.49
10476;BME280;26166;48.264;11.436;2023-02-21T16:26:59;96205.34;;;11.58;50.82
10476;BME280;26166;48.264;11.436;2023-02-21T16:29:59;96208.31;;;11.55;50.43
10476;BME280;26166;48.264;11.436;2023-02-21T16:33:03;96206.34;;;11.57;50.93
10476;BME280;26166;48.264;11.436;2023-02-21T16:36:04;96204.72;;;11.56;50.67
10476;BME280;26166;48.264;11.436;2023-02-21T16:39:07;96200.44;;;11.55;51.05
10476;BME280;26166;48.264;11.436;2023-02-21T16:42:08;96204.72;;;11.56;50.54
10476;BME280;26166;48.264;11.436;2023-02-21T16:45:08;96201.44;;;11.54;51.06
10476;BME280;26166;48.264;11.436;2023-02-21T16:48:11;96203.25;;;11.53;50.67
10476;BME280;26166;48.264;11.436;2023-02-21T16:51:13;96196.34;;;11.52;50.70
10476;BME280;26166;48.264;11.436;2023-02-21T16:54:14;96198.97;;;11.52;50.81
10476;BME280;26166;48.264;11.436;2023-02-21T16:57:14;96193.72;;;11.52;51.04
10476;BME280;26166;48.264;11.436;2023-02-21T17:00:15;96200.81;;;11.52;50.93
10476;BME280;26166;48.264;11.436;2023-02-21T17:03:16;96197.16;;;11.53;51.04
10476;BME280;26166;48.264;11.436;2023-02-21T17:06:18;96199.97;;;11.51;50.95
10476;BME280;26166;48.264;11.436;2023-02-21T17:09:20;96205.25;;;11.51;50.79
10476;BME280;26166;48.264;11.436;2023-02-21T17:12:21;96205.88;;;11.53;51.10
10476;BME280;26166;48.264;11.436;2023-02-21T17:15:21;96198.47;;;11.57;50.77
10476;BME280;26166;48.264;11.436;2023-02-21T17:18:22;96211.28;;;11.60;51.45
10476;BME280;26166;48.264;11.436;2023-02-21T17:21:23;96209.56;;;11.67;51.02
10476;BME280;26166;48.264;11.436;2023-02-21T17:24:23;96210.69;;;11.73;50.70
10476;BME280;26166;48.264;11.436;2023-02-21T17:27:23;96210.53;;;11.74;50.78
10476;BME280;26166;48.264;11.436;2023-02-21T17:30:23;96210.81;;;11.79;50.73
10476;BME280;26166;48.264;11.436;2023-02-21T17:33:24;96214.88;;;11.82;50.98
10476;BME280;26166;48.264;11.436;2023-02-21T17:36:25;96214.75;;;11.83;50.69
10476;BME280;26166;48.264;11.436;2023-02-21T17:39:25;96216.41;;;11.84;50.87
10476;BME280;26166;48.264;11.436;2023-02-21T17:42:26;96212.75;;;11.85;50.62
10476;BME280;26166;48.264;11.436;2023-02-21T17:45:26;96211.94;;;11.85;50.62
10476;BME280;26166;48.264;11.436;2023-02-21T17:48:26;96211.13;;;11.84;51.08
10476;BME280;26166;48.264;11.436;2023-02-21T17:51:26;96213.75;;;11.84;50.66
10476;BME280;26166;48.264;11.436;2023-02-21T17:54:26;96210.31;;;11.84;50.78
10476;BME280;26166;48.264;11.436;2023-02-21T17:57:27;96207.88;;;11.82;51.04
10476;BME280;26166;48.264;11.436;2023-02-21T18:00:28;96204.22;;;11.83;50.98
10476;BME280;26166;48.264;11.436;2023-02-21T18:03:34;96204.53;;;11.80;51.14
10476;BME280;26166;48.264;11.436;2023-02-21T18:06:34;96208.19;;;11.79;51.05
10476;BME280;26166;48.264;11.436;2023-02-21T18:09:34;96208.81;;;11.81;51.26
10476;BME280;26166;48.264;11.436;2023-02-21T18:12:35;96199.63;;;11.77;51.23
10476;BME280;26166;48.264;11.436;2023-02-21T18:15:35;96201.91;;;11.80;51.26
10476;BME280;26166;48.264;11.436;2023-02-21T18:18:35;96202.25;;;11.77;50.99
10476;BME280;26166;48.264;11.436;2023-02-21T18:21:36;96213.63;;;11.78;51.50
10476;BME280;26166;48.264;11.436;2023-02-21T18:24:40;96215.41;;;11.77;51.15
10476;BME280;26166;48.264;11.436;2023-02-21T18:27:40;96212.78;;;11.77;51.27
10476;BME280;26166;48.264;11.436;2023-02-21T18:30:40;96214.59;;;11.77;51.14
10476;BME280;26166;48.264;11.436;2023-02-21T18:33:41;96205.06;;;11.76;51.17
10476;BME280;26166;48.264;11.436;2023-02-21T18:36:51;96200.00;;;11.74;51.38
10476;BME280;26166;48.264;11.436;2023-02-21T18:39:52;96207.88;;;11.74;51.29
10476;BME280;26166;48.264;11.436;2023-02-21T18:42:52;96200.34;;;11.71;51.27